sensor_id;sensor_type;location;lat;lon;timestamp;temperature;humidity
18337;DHT22;9294;51.106;7.028;2023-02-28T00:00:09;18.50;76.20
18337;DHT22;9294;51.106;7.028;2023-02-28T00:02:37;18.50;76.20
18337;DHT22;9294;51.106;7.028;2023-02-28T00:05:05;18.50;76.20
18337;DHT22;9294;51.106;7.028;2023-02-28T00:07:32;18.50;76.30
18337;DHT22;9294;51.106;7.028;2023-02-28T00:09:58;18.50;76.30
18337;DHT22;9294;51.106;7.028;2023-02-28T00:12:25;18.50;76.30
18337;DHT22;9294;51.106;7.028;2023-02-28T00:14:52;18.40;76.30
18337;DHT22;9294;51.106;7.028;2023-02-28T00:17:20;18.40;76.20
18337;DHT22;9294;51.106;7.028;2023-02-28T00:19:47;18.40;76.10
18337;DHT22;9294;51.106;7.028;2023-02-28T00:22:14;18.40;76.10
18337;DHT22;9294;51.106;7.028;2023-02-28T00:24:41;18.30;76.00
18337;DHT22;9294;51.106;7.028;2023-02-28T00:27:08;18.30;76.00
18337;DHT22;9294;51.106;7.028;2023-02-28T00:29:35;18.40;76.20
18337;DHT22;9294;51.106;7.028;2023-02-28T00:32:01;18.30;76.20
18337;DHT22;9294;51.106;7.028;2023-02-28T00:34:29;18.30;76.20
18337;DHT22;9294;51.106;7.028;2023-02-28T00:36:56;18.30;76.20
18337;DHT22;9294;51.106;7.028;2023-02-28T00:39:23;18.30;76.20
18337;DHT22;9294;51.106;7.028;2023-02-28T00:41:50;18.30;76.30
18337;DHT22;9294;51.106;7.028;2023-02-28T00:44:17;18.20;76.10
18337;DHT22;9294;51.106;7.028;2023-02-28T00:46:46;18.30;76.20
18337;DHT22;9294;51.106;7.028;2023-02-28T00:49:13;18.20;76.10
18337;DHT22;9294;51.106;7.028;2023-02-28T00:51:41;18.20;76.10
18337;DHT22;9294;51.106;7.028;2023-02-28T00:54:08;18.20;76.20
18337;DHT22;9294;51.106;7.028;2023-02-28T00:56:34;18.20;76.20
18337;DHT22;9294;51.106;7.028;2023-02-28T00:59:01;18.20;76.20
18337;DHT22;9294;51.106;7.028;2023-02-28T01:01:28;18.20;76.20
18337;DHT22;9294;51.106;7.028;2023-02-28T01:03:54;18.20;76.20
18337;DHT22;9294;51.106;7.028;2023-02-28T01:06:22;18.20;76.20
18337;DHT22;9294;51.106;7.028;2023-02-28T01:08:50;18.10;76.00
18337;DHT22;9294;51.106;7.028;2023-02-28T01:11:18;18.10;76.10
18337;DHT22;9294;51.106;7.028;2023-02-28T01:13:46;18.10;76.10
18337;DHT22;9294;51.106;7.028;2023-02-28T01:16:13;18.10;76.00
18337;DHT22;9294;51.106;7.028;2023-02-28T01:18:39;18.10;76.10
18337;DHT22;9294;51.106;7.028;2023-02-28T01:21:07;18.10;76.10
18337;DHT22;9294;51.106;7.028;2023-02-28T01:23:34;18.10;76.00
18337;DHT22;9294;51.106;7.028;2023-02-28T01:26:05;18.10;76.10
18337;DHT22;9294;51.106;7.028;2023-02-28T01:28:33;18.10;76.10
18337;DHT22;9294;51.106;7.028;2023-02-28T01:31:00;18.10;76.10
18337;DHT22;9294;51.106;7.028;2023-02-28T01:33:27;18.00;76.10
18337;DHT22;9294;51.106;7.028;2023-02-28T01:35:58;18.00;76.00
18337;DHT22;9294;51.106;7.028;2023-02-28T01:38:25;18.00;76.00
18337;DHT22;9294;51.106;7.028;2023-02-28T01:40:52;18.00;76.00
18337;DHT22;9294;51.106;7.028;2023-02-28T01:43:25;18.00;76.00
18337;DHT22;9294;51.106;7.028;2023-02-28T01:45:53;18.10;76.80
18337;DHT22;9294;51.106;7.028;2023-02-28T01:48:23;18.10;76.10
18337;DHT22;9294;51.106;7.028;2023-02-28T01:50:52;18.00;76.00
18337;DHT22;9294;51.106;7.028;2023-02-28T01:53:26;18.00;76.10
18337;DHT22;9294;51.106;7.028;2023-02-28T01:55:54;18.00;76.00
18337;DHT22;9294;51.106;7.028;2023-02-28T01:58:23;18.00;76.00
18337;DHT22;9294;51.106;7.028;2023-02-28T02:00:50;18.00;75.90
18337;DHT22;9294;51.106;7.028;2023-02-28T02:03:18;17.90;75.70
18337;DHT22;9294;51.106;7.028;2023-02-28T02:05:46;18.00;75.90
18337;DHT22;9294;51.106;7.028;2023-02-28T02:08:16;17.90;75.80
18337;DHT22;9294;51.106;7.028;2023-02-28T02:10:45;17.90;75.80
18337;DHT22;9294;51.106;7.028;2023-02-28T02:13:32;17.90;75.80
18337;DHT22;9294;51.106;7.028;2023-02-28T02:16:07;17.90;75.70
18337;DHT22;9294;51.106;7.028;2023-02-28T02:18:41;17.90;75.80
18337;DHT22;9294;51.106;7.028;2023-02-28T02:21:32;17.90;75.80
18337;DHT22;9294;51.106;7.028;2023-02-28T02:24:20;17.90;75.80
18337;DHT22;9294;51.106;7.028;2023-02-28T02:27:18;17.90;76.60
18337;DHT22;9294;51.106;7.028;2023-02-28T02:30:10;17.80;75.70
18337;DHT22;9294;51.106;7.028;2023-02-28T02:35:55;17.80;75.70
18337;DHT22;9294;51.106;7.028;2023-02-28T02:38:31;17.80;75.80
18337;DHT22;9294;51.106;7.028;2023-02-28T02:41:05;17.80;75.70
18337;DHT22;9294;51.106;7.028;2023-02-28T02:43:38;17.80;75.70
18337;DHT22;9294;51.106;7.028;2023-02-28T02:46:12;17.80;75.70
18337;DHT22;9294;51.106;7.028;2023-02-28T02:48:42;17.80;75.70
18337;DHT22;9294;51.106;7.028;2023-02-28T02:51:14;17.80;75.70
18337;DHT22;9294;51.106;7.028;2023-02-28T02:53:46;17.80;75.70
18337;DHT22;9294;51.106;7.028;2023-02-28T02:56:17;17.70;75.70
18337;DHT22;9294;51.106;7.028;2023-02-28T02:58:48;17.80;75.70
18337;DHT22;9294;51.106;7.028;2023-02-28T03:01:18;17.80;75.70
18337;DHT22;9294;51.106;7.028;2023-02-28T03:03:55;17.70;75.70
18337;DHT22;9294;51.106;7.028;2023-02-28T03:06:23;17.70;75.60
18337;DHT22;9294;51.106;7.028;2023-02-28T03:08:50;17.70;75.70
18337;DHT22;9294;51.106;7.028;2023-02-28T03:11:17;17.70;75.60
18337;DHT22;9294;51.106;7.028;2023-02-28T03:14:09;17.70;75.60
18337;DHT22;9294;51.106;7.028;2023-02-28T03:19:51;17.70;75.60
18337;DHT22;9294;51.106;7.028;2023-02-28T03:22:38;17.80;75.70
18337;DHT22;9294;51.106;7.028;2023-02-28T03:25:10;17.60;75.50
18337;DHT22;9294;51.106;7.028;2023-02-28T03:27:42;17.60;75.50
18337;DHT22;9294;51.106;7.028;2023-02-28T03:30:15;17.60;75.40
18337;DHT22;9294;51.106;7.028;2023-02-28T03:32:52;17.70;75.50
18337;DHT22;9294;51.106;7.028;2023-02-28T03:35:23;17.60;75.50
18337;DHT22;9294;51.106;7.028;2023-02-28T03:37:56;17.60;75.50
18337;DHT22;9294;51.106;7.028;2023-02-28T03:40:30;17.60;75.50
18337;DHT22;9294;51.106;7.028;2023-02-28T03:42:59;17.60;75.50
18337;DHT22;9294;51.106;7.028;2023-02-28T03:45:30;17.60;75.50
18337;DHT22;9294;51.106;7.028;2023-02-28T03:48:00;17.60;75.50
18337;DHT22;9294;51.106;7.028;2023-02-28T03:50:32;17.60;75.50
18337;DHT22;9294;51.106;7.028;2023-02-28T03:53:07;17.60;75.50
18337;DHT22;9294;51.106;7.028;2023-02-28T03:55:39;17.50;75.50
18337;DHT22;9294;51.106;7.028;2023-02-28T03:58:15;17.50;75.40
18337;DHT22;9294;51.106;7.028;2023-02-28T04:00:47;17.50;75.40
18337;DHT22;9294;51.106;7.028;2023-02-28T04:03:15;17.50;75.50
18337;DHT22;9294;51.106;7.028;2023-02-28T04:05:50;17.50;76.30
18337;DHT22;9294;51.106;7.028;2023-02-28T04:08:19;17.50;75.50
18337;DHT22;9294;51.106;7.028;2023-02-28T04:10:50;17.50;75.50
18337;DHT22;9294;51.106;7.028;2023-02-28T04:13:18;17.50;75.50
18337;DHT22;9294;51.106;7.028;2023-02-28T04:15:44;17.40;75.40
18337;DHT22;9294;51.106;7.028;2023-02-28T04:18:11;17.40;75.40
18337;DHT22;9294;51.106;7.028;2023-02-28T04:20:38;17.50;75.50
18337;DHT22;9294;51.106;7.028;2023-02-28T04:23:04;17.50;76.30
18337;DHT22;9294;51.106;7.028;2023-02-28T04:25:32;17.40;75.40
18337;DHT22;9294;51.106;7.028;2023-02-28T04:27:59;17.40;75.50
18337;DHT22;9294;51.106;7.028;2023-02-28T04:30:26;17.40;75.40
18337;DHT22;9294;51.106;7.028;2023-02-28T04:32:52;17.40;75.40
18337;DHT22;9294;51.106;7.028;2023-02-28T04:35:19;17.40;75.50
18337;DHT22;9294;51.106;7.028;2023-02-28T04:37:46;17.40;75.50
18337;DHT22;9294;51.106;7.028;2023-02-28T04:40:12;17.40;75.50
18337;DHT22;9294;51.106;7.028;2023-02-28T04:42:40;17.30;75.40
18337;DHT22;9294;51.106;7.028;2023-02-28T04:45:08;17.40;75.60
18337;DHT22;9294;51.106;7.028;2023-02-28T04:47:36;17.40;75.70
18337;DHT22;9294;51.106;7.028;2023-02-28T04:50:03;17.60;75.60
18337;DHT22;9294;51.106;7.028;2023-02-28T04:52:30;17.70;75.30
18337;DHT22;9294;51.106;7.028;2023-02-28T04:54:56;17.80;75.20
18337;DHT22;9294;51.106;7.028;2023-02-28T04:57:23;17.90;75.00
18337;DHT22;9294;51.106;7.028;2023-02-28T04:59:51;18.00;75.00
18337;DHT22;9294;51.106;7.028;2023-02-28T05:02:18;18.10;74.90
18337;DHT22;9294;51.106;7.028;2023-02-28T05:04:46;18.20;74.90
18337;DHT22;9294;51.106;7.028;2023-02-28T05:07:13;18.20;74.70
18337;DHT22;9294;51.106;7.028;2023-02-28T05:09:39;18.40;74.80
18337;DHT22;9294;51.106;7.028;2023-02-28T05:12:07;18.40;74.70
18337;DHT22;9294;51.106;7.028;2023-02-28T05:14:35;18.50;74.80
18337;DHT22;9294;51.106;7.028;2023-02-28T05:17:03;18.50;74.70
18337;DHT22;9294;51.106;7.028;2023-02-28T05:19:29;18.50;74.50
18337;DHT22;9294;51.106;7.028;2023-02-28T05:21:56;18.60;74.60
18337;DHT22;9294;51.106;7.028;2023-02-28T05:24:23;18.60;74.60
18337;DHT22;9294;51.106;7.028;2023-02-28T05:26:52;18.60;74.50
18337;DHT22;9294;51.106;7.028;2023-02-28T05:29:19;18.70;74.50
18337;DHT22;9294;51.106;7.028;2023-02-28T05:31:46;18.70;74.30
18337;DHT22;9294;51.106;7.028;2023-02-28T05:34:14;18.80;74.20
18337;DHT22;9294;51.106;7.028;2023-02-28T05:36:42;18.80;74.00
18337;DHT22;9294;51.106;7.028;2023-02-28T05:39:09;18.90;74.00
18337;DHT22;9294;51.106;7.028;2023-02-28T05:41:41;18.90;73.90
18337;DHT22;9294;51.106;7.028;2023-02-28T05:44:08;19.00;73.80
18337;DHT22;9294;51.106;7.028;2023-02-28T05:46:35;19.00;73.50
18337;DHT22;9294;51.106;7.028;2023-02-28T05:49:02;19.00;73.40
18337;DHT22;9294;51.106;7.028;2023-02-28T05:51:31;19.00;73.30
18337;DHT22;9294;51.106;7.028;2023-02-28T05:54:00;19.10;73.30
18337;DHT22;9294;51.106;7.028;2023-02-28T05:56:27;19.10;73.10
18337;DHT22;9294;51.106;7.028;2023-02-28T05:58:54;19.10;73.10
18337;DHT22;9294;51.106;7.028;2023-02-28T06:01:24;19.10;73.10
18337;DHT22;9294;51.106;7.028;2023-02-28T06:03:51;19.10;73.00
18337;DHT22;9294;51.106;7.028;2023-02-28T06:06:18;19.10;73.00
18337;DHT22;9294;51.106;7.028;2023-02-28T06:08:46;19.10;73.00
18337;DHT22;9294;51.106;7.028;2023-02-28T06:11:13;19.10;73.00
18337;DHT22;9294;51.106;7.028;2023-02-28T06:13:39;19.10;72.80
18337;DHT22;9294;51.106;7.028;2023-02-28T06:16:07;19.20;72.90
18337;DHT22;9294;51.106;7.028;2023-02-28T06:18:34;19.20;72.70
18337;DHT22;9294;51.106;7.028;2023-02-28T06:21:01;19.20;72.70
18337;DHT22;9294;51.106;7.028;2023-02-28T06:23:28;19.20;72.50
18337;DHT22;9294;51.106;7.028;2023-02-28T06:25:56;19.20;73.60
18337;DHT22;9294;51.106;7.028;2023-02-28T06:28:24;19.20;74.50
18337;DHT22;9294;51.106;7.028;2023-02-28T06:30:51;19.20;75.30
18337;DHT22;9294;51.106;7.028;2023-02-28T06:33:18;19.10;75.40
18337;DHT22;9294;51.106;7.028;2023-02-28T06:35:46;19.10;75.10
18337;DHT22;9294;51.106;7.028;2023-02-28T06:38:13;19.10;74.90
18337;DHT22;9294;51.106;7.028;2023-02-28T06:40:40;19.10;75.10
18337;DHT22;9294;51.106;7.028;2023-02-28T06:43:08;19.20;75.20
18337;DHT22;9294;51.106;7.028;2023-02-28T06:45:41;19.20;75.20
18337;DHT22;9294;51.106;7.028;2023-02-28T06:48:08;19.20;75.40
18337;DHT22;9294;51.106;7.028;2023-02-28T06:50:35;19.20;75.30
18337;DHT22;9294;51.106;7.028;2023-02-28T06:53:02;19.20;75.10
18337;DHT22;9294;51.106;7.028;2023-02-28T06:55:29;19.20;75.30
18337;DHT22;9294;51.106;7.028;2023-02-28T06:57:56;19.20;75.50
18337;DHT22;9294;51.106;7.028;2023-02-28T07:00:25;19.10;75.40
18337;DHT22;9294;51.106;7.028;2023-02-28T07:02:51;19.10;75.50
18337;DHT22;9294;51.106;7.028;2023-02-28T07:05:19;19.10;75.30
18337;DHT22;9294;51.106;7.028;2023-02-28T07:07:46;19.00;75.00
18337;DHT22;9294;51.106;7.028;2023-02-28T07:10:13;19.00;75.20
18337;DHT22;9294;51.106;7.028;2023-02-28T07:12:42;19.00;75.30
18337;DHT22;9294;51.106;7.028;2023-02-28T07:15:09;19.10;75.50
18337;DHT22;9294;51.106;7.028;2023-02-28T07:17:37;19.10;75.50
18337;DHT22;9294;51.106;7.028;2023-02-28T07:20:05;19.00;75.30
18337;DHT22;9294;51.106;7.028;2023-02-28T07:22:32;19.10;75.50
18337;DHT22;9294;51.106;7.028;2023-02-28T07:24:58;19.10;75.40
18337;DHT22;9294;51.106;7.028;2023-02-28T07:27:25;19.10;75.60
18337;DHT22;9294;51.106;7.028;2023-02-28T07:29:52;19.20;75.70
18337;DHT22;9294;51.106;7.028;2023-02-28T07:32:19;19.20;75.20
18337;DHT22;9294;51.106;7.028;2023-02-28T07:34:47;19.20;75.10
18337;DHT22;9294;51.106;7.028;2023-02-28T07:37:14;19.20;74.60
18337;DHT22;9294;51.106;7.028;2023-02-28T07:39:40;19.20;73.00
18337;DHT22;9294;51.106;7.028;2023-02-28T07:42:08;19.20;74.20
18337;DHT22;9294;51.106;7.028;2023-02-28T07:44:37;19.10;72.90
18337;DHT22;9294;51.106;7.028;2023-02-28T07:47:06;19.20;72.50
18337;DHT22;9294;51.106;7.028;2023-02-28T07:49:33;19.20;71.00
18337;DHT22;9294;51.106;7.028;2023-02-28T07:52:02;19.20;71.90
18337;DHT22;9294;51.106;7.028;2023-02-28T07:54:29;19.20;72.40
18337;DHT22;9294;51.106;7.028;2023-02-28T07:56:55;19.20;72.10
18337;DHT22;9294;51.106;7.028;2023-02-28T07:59:22;19.20;71.90
18337;DHT22;9294;51.106;7.028;2023-02-28T08:01:49;19.20;72.00
18337;DHT22;9294;51.106;7.028;2023-02-28T08:04:16;19.20;71.80
18337;DHT22;9294;51.106;7.028;2023-02-28T08:06:43;19.20;71.70
18337;DHT22;9294;51.106;7.028;2023-02-28T08:09:11;19.20;71.50
18337;DHT22;9294;51.106;7.028;2023-02-28T08:11:38;19.20;71.20
18337;DHT22;9294;51.106;7.028;2023-02-28T08:14:04;19.20;71.20
18337;DHT22;9294;51.106;7.028;2023-02-28T08:16:31;19.20;71.10
18337;DHT22;9294;51.106;7.028;2023-02-28T08:18:58;19.20;71.00
18337;DHT22;9294;51.106;7.028;2023-02-28T08:21:24;19.30;71.00
18337;DHT22;9294;51.106;7.028;2023-02-28T08:23:51;19.20;70.70
18337;DHT22;9294;51.106;7.028;2023-02-28T08:26:19;19.20;70.70
18337;DHT22;9294;51.106;7.028;2023-02-28T08:28:46;19.20;70.70
18337;DHT22;9294;51.106;7.028;2023-02-28T08:31:15;19.20;70.50
18337;DHT22;9294;51.106;7.028;2023-02-28T08:33:43;19.20;70.70
18337;DHT22;9294;51.106;7.028;2023-02-28T08:36:11;19.20;70.50
18337;DHT22;9294;51.106;7.028;2023-02-28T08:38:38;19.20;70.40
18337;DHT22;9294;51.106;7.028;2023-02-28T08:41:08;19.20;70.40
18337;DHT22;9294;51.106;7.028;2023-02-28T08:43:37;19.10;70.30
18337;DHT22;9294;51.106;7.028;2023-02-28T08:46:04;19.10;70.30
18337;DHT22;9294;51.106;7.028;2023-02-28T08:48:32;19.10;70.30
18337;DHT22;9294;51.106;7.028;2023-02-28T08:51:01;19.10;70.30
18337;DHT22;9294;51.106;7.028;2023-02-28T08:53:29;19.10;70.30
18337;DHT22;9294;51.106;7.028;2023-02-28T08:55:57;19.10;70.30
18337;DHT22;9294;51.106;7.028;2023-02-28T08:58:24;19.10;70.30
18337;DHT22;9294;51.106;7.028;2023-02-28T09:00:53;19.10;70.30
18337;DHT22;9294;51.106;7.028;2023-02-28T09:03:20;19.10;70.20
18337;DHT22;9294;51.106;7.028;2023-02-28T09:05:55;19.10;70.00
18337;DHT22;9294;51.106;7.028;2023-02-28T09:08:22;19.10;70.30
18337;DHT22;9294;51.106;7.028;2023-02-28T09:10:49;19.20;70.40
18337;DHT22;9294;51.106;7.028;2023-02-28T09:13:16;19.30;70.50
18337;DHT22;9294;51.106;7.028;2023-02-28T09:15:43;19.30;70.50
18337;DHT22;9294;51.106;7.028;2023-02-28T09:18:11;19.40;70.60
18337;DHT22;9294;51.106;7.028;2023-02-28T09:20:39;19.30;70.50
18337;DHT22;9294;51.106;7.028;2023-02-28T09:23:06;19.40;70.60
18337;DHT22;9294;51.106;7.028;2023-02-28T09:25:33;19.40;71.30
18337;DHT22;9294;51.106;7.028;2023-02-28T09:28:00;19.30;72.90
18337;DHT22;9294;51.106;7.028;2023-02-28T09:30:27;19.30;73.00
18337;DHT22;9294;51.106;7.028;2023-02-28T09:32:54;19.30;72.80
18337;DHT22;9294;51.106;7.028;2023-02-28T09:35:23;19.30;72.80
18337;DHT22;9294;51.106;7.028;2023-02-28T09:37:52;19.30;72.80
18337;DHT22;9294;51.106;7.028;2023-02-28T09:40:20;19.30;72.80
18337;DHT22;9294;51.106;7.028;2023-02-28T09:42:49;19.30;72.80
18337;DHT22;9294;51.106;7.028;2023-02-28T09:45:22;19.30;72.80
18337;DHT22;9294;51.106;7.028;2023-02-28T09:47:53;19.30;72.90
18337;DHT22;9294;51.106;7.028;2023-02-28T09:50:30;19.30;73.00
18337;DHT22;9294;51.106;7.028;2023-02-28T09:52:59;19.30;72.80
18337;DHT22;9294;51.106;7.028;2023-02-28T09:55:31;19.30;72.90
18337;DHT22;9294;51.106;7.028;2023-02-28T09:58:00;19.30;72.90
18337;DHT22;9294;51.106;7.028;2023-02-28T10:00:32;19.30;73.00
18337;DHT22;9294;51.106;7.028;2023-02-28T10:03:20;19.30;72.90
18337;DHT22;9294;51.106;7.028;2023-02-28T10:05:53;19.30;72.80
18337;DHT22;9294;51.106;7.028;2023-02-28T10:08:25;19.20;73.00
18337;DHT22;9294;51.106;7.028;2023-02-28T10:10:55;19.20;72.90
18337;DHT22;9294;51.106;7.028;2023-02-28T10:13:28;19.20;72.90
18337;DHT22;9294;51.106;7.028;2023-02-28T10:16:02;19.20;72.30
18337;DHT22;9294;51.106;7.028;2023-02-28T10:18:38;19.20;72.70
18337;DHT22;9294;51.106;7.028;2023-02-28T10:21:14;19.30;73.00
18337;DHT22;9294;51.106;7.028;2023-02-28T10:23:43;19.30;73.70
18337;DHT22;9294;51.106;7.028;2023-02-28T10:26:14;19.20;73.80
18337;DHT22;9294;51.106;7.028;2023-02-28T10:28:42;19.30;73.90
18337;DHT22;9294;51.106;7.028;2023-02-28T10:31:12;19.30;73.80
18337;DHT22;9294;51.106;7.028;2023-02-28T10:33:40;19.30;73.70
18337;DHT22;9294;51.106;7.028;2023-02-28T10:36:13;19.40;73.90
18337;DHT22;9294;51.106;7.028;2023-02-28T10:38:43;19.40;74.00
18337;DHT22;9294;51.106;7.028;2023-02-28T10:41:12;19.40;73.90
18337;DHT22;9294;51.106;7.028;2023-02-28T10:43:40;19.50;74.10
18337;DHT22;9294;51.106;7.028;2023-02-28T10:46:13;19.50;73.90
18337;DHT22;9294;51.106;7.028;2023-02-28T10:48:42;19.50;73.90
18337;DHT22;9294;51.106;7.028;2023-02-28T10:51:13;19.50;73.90
18337;DHT22;9294;51.106;7.028;2023-02-28T10:53:47;19.50;74.00
18337;DHT22;9294;51.106;7.028;2023-02-28T10:56:18;19.50;74.10
18337;DHT22;9294;51.106;7.028;2023-02-28T10:58:50;19.50;74.30
18337;DHT22;9294;51.106;7.028;2023-02-28T11:01:19;19.60;74.60
18337;DHT22;9294;51.106;7.028;2023-02-28T11:03:46;19.60;74.90
18337;DHT22;9294;51.106;7.028;2023-02-28T11:06:17;19.60;75.80
18337;DHT22;9294;51.106;7.028;2023-02-28T11:08:48;19.60;75.50
18337;DHT22;9294;51.106;7.028;2023-02-28T11:11:16;19.60;75.50
18337;DHT22;9294;51.106;7.028;2023-02-28T11:13:44;19.50;75.50
18337;DHT22;9294;51.106;7.028;2023-02-28T11:16:13;19.50;75.90
18337;DHT22;9294;51.106;7.028;2023-02-28T11:18:44;19.40;75.70
18337;DHT22;9294;51.106;7.028;2023-02-28T11:21:22;19.40;75.80
18337;DHT22;9294;51.106;7.028;2023-02-28T11:23:52;19.40;75.60
18337;DHT22;9294;51.106;7.028;2023-02-28T11:26:39;19.40;75.70
18337;DHT22;9294;51.106;7.028;2023-02-28T11:29:16;19.40;75.40
18337;DHT22;9294;51.106;7.028;2023-02-28T11:32:01;19.40;75.50
18337;DHT22;9294;51.106;7.028;2023-02-28T11:34:29;19.40;75.40
18337;DHT22;9294;51.106;7.028;2023-02-28T11:36:58;19.40;75.30
18337;DHT22;9294;51.106;7.028;2023-02-28T11:39:26;19.40;75.30
18337;DHT22;9294;51.106;7.028;2023-02-28T11:42:11;19.40;75.20
18337;DHT22;9294;51.106;7.028;2023-02-28T11:44:54;19.30;75.00
18337;DHT22;9294;51.106;7.028;2023-02-28T11:47:31;19.30;75.00
18337;DHT22;9294;51.106;7.028;2023-02-28T11:50:12;19.30;74.90
18337;DHT22;9294;51.106;7.028;2023-02-28T11:52:48;19.30;74.70
18337;DHT22;9294;51.106;7.028;2023-02-28T11:55:20;19.30;74.60
18337;DHT22;9294;51.106;7.028;2023-02-28T11:58:00;19.30;74.40
18337;DHT22;9294;51.106;7.028;2023-02-28T12:00:44;19.30;74.20
18337;DHT22;9294;51.106;7.028;2023-02-28T12:03:23;19.30;73.90
18337;DHT22;9294;51.106;7.028;2023-02-28T12:06:01;19.30;73.90
18337;DHT22;9294;51.106;7.028;2023-02-28T12:08:43;19.40;74.10
18337;DHT22;9294;51.106;7.028;2023-02-28T12:11:16;19.40;74.00
18337;DHT22;9294;51.106;7.028;2023-02-28T12:13:50;19.40;74.10
18337;DHT22;9294;51.106;7.028;2023-02-28T12:16:38;19.10;73.70
18337;DHT22;9294;51.106;7.028;2023-02-28T12:19:17;19.50;74.10
18337;DHT22;9294;51.106;7.028;2023-02-28T12:21:55;19.50;74.80
18337;DHT22;9294;51.106;7.028;2023-02-28T12:24:39;19.50;73.90
18337;DHT22;9294;51.106;7.028;2023-02-28T12:27:11;19.50;73.90
18337;DHT22;9294;51.106;7.028;2023-02-28T12:29:45;19.50;74.30
18337;DHT22;9294;51.106;7.028;2023-02-28T12:32:16;19.50;74.40
18337;DHT22;9294;51.106;7.028;2023-02-28T12:34:49;19.50;74.70
18337;DHT22;9294;51.106;7.028;2023-02-28T12:37:19;19.40;74.70
18337;DHT22;9294;51.106;7.028;2023-02-28T12:39:54;19.50;74.50
18337;DHT22;9294;51.106;7.028;2023-02-28T12:42:25;19.50;73.90
18337;DHT22;9294;51.106;7.028;2023-02-28T12:44:56;19.40;73.80
18337;DHT22;9294;51.106;7.028;2023-02-28T12:47:25;19.40;72.40
18337;DHT22;9294;51.106;7.028;2023-02-28T12:49:55;19.30;70.00
18337;DHT22;9294;51.106;7.028;2023-02-28T12:52:31;19.30;71.50
18337;DHT22;9294;51.106;7.028;2023-02-28T12:55:10;19.30;71.90
18337;DHT22;9294;51.106;7.028;2023-02-28T12:57:43;19.30;72.10
18337;DHT22;9294;51.106;7.028;2023-02-28T13:00:15;19.40;72.10
18337;DHT22;9294;51.106;7.028;2023-02-28T13:06:23;19.40;72.00
18337;DHT22;9294;51.106;7.028;2023-02-28T13:09:08;19.30;71.90
18337;DHT22;9294;51.106;7.028;2023-02-28T13:11:41;19.40;72.10
18337;DHT22;9294;51.106;7.028;2023-02-28T13:14:20;19.30;72.00
18337;DHT22;9294;51.106;7.028;2023-02-28T13:17:00;19.30;72.00
18337;DHT22;9294;51.106;7.028;2023-02-28T13:19:29;19.30;71.90
18337;DHT22;9294;51.106;7.028;2023-02-28T13:21:57;19.30;72.00
18337;DHT22;9294;51.106;7.028;2023-02-28T13:24:41;19.30;72.10
18337;DHT22;9294;51.106;7.028;2023-02-28T13:27:23;19.30;72.10
18337;DHT22;9294;51.106;7.028;2023-02-28T13:29:51;19.30;72.10
18337;DHT22;9294;51.106;7.028;2023-02-28T13:32:42;19.20;72.20
18337;DHT22;9294;51.106;7.028;2023-02-28T13:38:35;19.30;72.10
18337;DHT22;9294;51.106;7.028;2023-02-28T13:44:09;19.40;72.50
18337;DHT22;9294;51.106;7.028;2023-02-28T13:49:32;19.40;72.40
18337;DHT22;9294;51.106;7.028;2023-02-28T13:52:09;19.40;72.30
18337;DHT22;9294;51.106;7.028;2023-02-28T13:54:45;19.40;72.20
18337;DHT22;9294;51.106;7.028;2023-02-28T13:57:24;19.50;72.40
18337;DHT22;9294;51.106;7.028;2023-02-28T14:00:06;19.50;72.30
18337;DHT22;9294;51.106;7.028;2023-02-28T14:02:59;19.50;72.30
18337;DHT22;9294;51.106;7.028;2023-02-28T14:05:30;19.50;72.30
18337;DHT22;9294;51.106;7.028;2023-02-28T14:08:05;19.50;71.90
18337;DHT22;9294;51.106;7.028;2023-02-28T14:10:36;19.50;71.70
18337;DHT22;9294;51.106;7.028;2023-02-28T14:13:14;19.50;71.70
18337;DHT22;9294;51.106;7.028;2023-02-28T14:16:04;19.50;71.50
18337;DHT22;9294;51.106;7.028;2023-02-28T14:18:33;19.50;71.40
18337;DHT22;9294;51.106;7.028;2023-02-28T14:21:09;19.50;71.20
18337;DHT22;9294;51.106;7.028;2023-02-28T14:23:51;19.50;71.20
18337;DHT22;9294;51.106;7.028;2023-02-28T14:26:38;19.60;70.90
18337;DHT22;9294;51.106;7.028;2023-02-28T14:29:38;19.60;70.80
18337;DHT22;9294;51.106;7.028;2023-02-28T14:32:18;19.60;70.30
18337;DHT22;9294;51.106;7.028;2023-02-28T14:34:53;19.60;69.80
18337;DHT22;9294;51.106;7.028;2023-02-28T14:37:26;19.50;69.60
18337;DHT22;9294;51.106;7.028;2023-02-28T14:39:54;19.60;70.00
18337;DHT22;9294;51.106;7.028;2023-02-28T14:42:28;19.60;70.00
18337;DHT22;9294;51.106;7.028;2023-02-28T14:44:55;19.60;70.00
18337;DHT22;9294;51.106;7.028;2023-02-28T14:47:26;19.50;70.20
18337;DHT22;9294;51.106;7.028;2023-02-28T14:49:54;19.50;70.70
18337;DHT22;9294;51.106;7.028;2023-02-28T14:52:22;19.50;70.70
18337;DHT22;9294;51.106;7.028;2023-02-28T14:54:53;19.50;70.70
18337;DHT22;9294;51.106;7.028;2023-02-28T14:57:23;19.50;70.70
18337;DHT22;9294;51.106;7.028;2023-02-28T14:59:58;19.50;70.70
18337;DHT22;9294;51.106;7.028;2023-02-28T15:02:30;19.50;70.70
18337;DHT22;9294;51.106;7.028;2023-02-28T15:04:59;19.50;70.70
18337;DHT22;9294;51.106;7.028;2023-02-28T15:07:27;19.50;70.90
18337;DHT22;9294;51.106;7.028;2023-02-28T15:10:16;19.50;71.00
18337;DHT22;9294;51.106;7.028;2023-02-28T15:12:51;19.50;70.70
18337;DHT22;9294;51.106;7.028;2023-02-28T15:15:19;19.50;71.00
18337;DHT22;9294;51.106;7.028;2023-02-28T15:17:50;19.50;71.10
18337;DHT22;9294;51.106;7.028;2023-02-28T15:20:18;19.50;71.00
18337;DHT22;9294;51.106;7.028;2023-02-28T15:22:46;19.60;71.20
18337;DHT22;9294;51.106;7.028;2023-02-28T15:25:17;19.60;71.20
18337;DHT22;9294;51.106;7.028;2023-02-28T15:27:47;19.60;71.20
18337;DHT22;9294;51.106;7.028;2023-02-28T15:30:17;19.60;71.40
18337;DHT22;9294;51.106;7.028;2023-02-28T15:32:45;19.60;71.40
18337;DHT22;9294;51.106;7.028;2023-02-28T15:35:27;19.60;71.40
18337;DHT22;9294;51.106;7.028;2023-02-28T15:37:55;19.60;71.40
18337;DHT22;9294;51.106;7.028;2023-02-28T15:40:26;19.60;71.50
18337;DHT22;9294;51.106;7.028;2023-02-28T15:43:04;19.60;71.50
18337;DHT22;9294;51.106;7.028;2023-02-28T15:45:40;19.70;71.60
18337;DHT22;9294;51.106;7.028;2023-02-28T15:48:15;19.70;71.60
18337;DHT22;9294;51.106;7.028;2023-02-28T15:50:44;19.60;71.40
18337;DHT22;9294;51.106;7.028;2023-02-28T15:53:14;19.60;71.50
18337;DHT22;9294;51.106;7.028;2023-02-28T15:55:41;19.60;71.40
18337;DHT22;9294;51.106;7.028;2023-02-28T15:58:10;19.70;71.50
18337;DHT22;9294;51.106;7.028;2023-02-28T16:00:38;19.60;71.40
18337;DHT22;9294;51.106;7.028;2023-02-28T16:03:23;19.60;71.40
18337;DHT22;9294;51.106;7.028;2023-02-28T16:06:12;19.60;71.40
18337;DHT22;9294;51.106;7.028;2023-02-28T16:08:48;19.60;71.40
18337;DHT22;9294;51.106;7.028;2023-02-28T16:11:16;19.60;71.50
18337;DHT22;9294;51.106;7.028;2023-02-28T16:13:43;19.60;71.50
18337;DHT22;9294;51.106;7.028;2023-02-28T16:16:15;19.60;71.40
18337;DHT22;9294;51.106;7.028;2023-02-28T16:18:42;19.60;71.40
18337;DHT22;9294;51.106;7.028;2023-02-28T16:21:10;19.50;71.50
18337;DHT22;9294;51.106;7.028;2023-02-28T16:23:37;19.50;71.80
18337;DHT22;9294;51.106;7.028;2023-02-28T16:26:04;19.50;72.20